createdAt,value
2019-04-03T00:00:34.501Z,12.78
2019-04-03T00:03:04.736Z,14.03
2019-04-03T00:05:35.009Z,14.53
2019-04-03T00:08:02.324Z,14.60
2019-04-03T00:10:30.192Z,15.10
2019-04-03T00:12:58.326Z,12.73
2019-04-03T00:15:26.342Z,11.68
2019-04-03T00:17:54.276Z,13.70
2019-04-03T00:20:22.137Z,13.03
2019-04-03T00:22:52.030Z,10.98
2019-04-03T00:25:21.955Z,13.30
2019-04-03T00:27:52.008Z,11.88
2019-04-03T00:30:19.131Z,11.75
2019-04-03T00:32:48.509Z,16.85
2019-04-03T00:35:16.469Z,16.57
2019-04-03T00:37:44.451Z,13.55
2019-04-03T00:40:12.390Z,14.87
2019-04-03T00:42:40.357Z,13.00
2019-04-03T00:45:08.343Z,12.33
2019-04-03T00:47:36.351Z,16.30
2019-04-03T00:50:04.751Z,14.47
2019-04-03T00:52:33.023Z,13.75
2019-04-03T00:55:00.945Z,13.40
2019-04-03T00:57:28.843Z,15.53
2019-04-03T00:59:57.001Z,13.68
2019-04-03T01:02:25.096Z,15.13
2019-04-03T01:04:54.444Z,14.78
2019-04-03T01:07:22.300Z,15.60
2019-04-03T01:09:50.212Z,16.97
2019-04-03T01:12:18.207Z,14.68
2019-04-03T01:14:46.156Z,13.48
2019-04-03T01:17:14.118Z,18.15
2019-04-03T01:19:42.023Z,16.15
2019-04-03T01:22:10.017Z,15.18
2019-04-03T01:24:38.794Z,19.80
2019-04-03T01:27:07.014Z,13.98
2019-04-03T01:29:34.999Z,16.62
2019-04-03T01:32:02.913Z,18.37
2019-04-03T01:34:30.866Z,15.68
2019-04-03T01:36:58.841Z,16.25
2019-04-03T01:39:26.851Z,17.62
2019-04-03T01:41:54.855Z,19.40
2019-04-03T01:44:24.714Z,15.98
2019-04-03T01:46:52.349Z,18.40
2019-04-03T01:49:20.263Z,19.02
2019-04-03T01:51:48.292Z,17.32
2019-04-03T01:54:16.250Z,15.63
2019-04-03T01:56:44.140Z,19.00
2019-04-03T01:59:12.051Z,19.87
2019-04-03T02:01:39.964Z,17.25
2019-04-03T02:04:08.044Z,21.23
2019-04-03T02:06:35.990Z,19.07
2019-04-03T02:09:05.396Z,19.67
2019-04-03T02:11:33.261Z,17.25
2019-04-03T02:14:01.285Z,17.57
2019-04-03T02:16:29.208Z,27.40
2019-04-03T02:18:57.225Z,19.10
2019-04-03T02:21:27.171Z,17.62
2019-04-03T02:23:54.776Z,19.77
2019-04-03T02:26:22.633Z,17.60
2019-04-03T02:28:50.529Z,13.48
2019-04-03T02:31:19.994Z,14.20
2019-04-03T02:33:48.483Z,12.65
2019-04-03T02:36:16.492Z,17.40
2019-04-03T02:38:44.368Z,13.43
2019-04-03T02:41:12.411Z,13.25
2019-04-03T02:43:40.482Z,16.15
2019-04-03T02:46:08.390Z,16.50
2019-04-03T02:48:38.317Z,15.75
2019-04-03T02:51:05.944Z,15.95
2019-04-03T02:53:33.857Z,19.32
2019-04-03T02:56:01.737Z,15.40
2019-04-03T02:58:29.624Z,16.67
2019-04-03T03:00:57.651Z,13.45
2019-04-03T03:03:25.821Z,15.60
2019-04-03T03:05:54.129Z,14.28
2019-04-03T03:08:23.092Z,17.67
2019-04-03T03:10:52.869Z,14.85
2019-04-03T03:13:21.534Z,14.07
2019-04-03T03:15:49.777Z,15.53
2019-04-03T03:18:17.823Z,15.23
2019-04-03T03:20:46.111Z,11.90
2019-04-03T03:23:14.275Z,14.40
2019-04-03T03:25:42.377Z,12.73
2019-04-03T03:28:13.190Z,13.75
2019-04-03T03:30:46.416Z,15.10
2019-04-03T03:33:27.377Z,10.82
2019-04-03T03:35:44.389Z,10.80
2019-04-03T03:38:09.224Z,10.15
2019-04-03T03:40:37.250Z,8.25
2019-04-03T03:43:06.284Z,9.38
2019-04-03T03:45:34.848Z,11.68
2019-04-03T03:48:02.752Z,10.82
2019-04-03T03:50:30.816Z,10.05
2019-04-03T03:52:58.782Z,11.95
2019-04-03T03:55:26.770Z,11.22
2019-04-03T03:57:55.040Z,11.38
2019-04-03T04:00:24.391Z,9.28
2019-04-03T04:02:53.053Z,10.72
2019-04-03T04:05:22.893Z,9.88
2019-04-03T04:07:50.852Z,10.08
2019-04-03T04:10:18.880Z,10.10
2019-04-03T04:12:46.779Z,11.40
2019-04-03T04:15:14.750Z,9.93
2019-04-03T04:17:42.640Z,10.55
2019-04-03T04:20:11.070Z,9.33
2019-04-03T04:22:39.149Z,9.08
2019-04-03T04:25:07.043Z,10.65
2019-04-03T04:27:53.936Z,9.98
2019-04-03T04:30:21.948Z,9.53
2019-04-03T04:32:50.040Z,11.80
2019-04-03T04:35:20.764Z,12.03
2019-04-03T04:37:47.555Z,12.30
2019-04-03T04:40:15.499Z,10.32
2019-04-03T04:42:43.399Z,11.15
2019-04-03T04:45:11.847Z,11.43
2019-04-03T04:47:40.469Z,12.33
2019-04-03T04:50:08.539Z,12.65
2019-04-03T04:52:36.788Z,12.47
2019-04-03T04:55:04.875Z,12.65
2019-04-03T04:57:32.846Z,11.45
2019-04-03T05:00:00.791Z,9.35
2019-04-03T05:02:28.708Z,9.43
2019-04-03T05:04:56.686Z,8.73
2019-04-03T05:07:24.724Z,10.58
2019-04-03T05:09:52.603Z,14.23
2019-04-03T05:12:20.653Z,9.95
2019-04-03T05:14:49.412Z,10.53
2019-04-03T05:17:17.474Z,11.08
2019-04-03T05:19:48.270Z,10.13
2019-04-03T05:22:15.064Z,12.58
2019-04-03T05:24:42.982Z,11.30
2019-04-03T05:27:11.138Z,11.18
2019-04-03T05:29:39.343Z,11.55
2019-04-03T05:32:09.490Z,11.78
2019-04-03T05:34:37.112Z,12.40
2019-04-03T05:37:05.144Z,9.60
2019-04-03T05:39:33.135Z,10.65
2019-04-03T05:42:01.021Z,10.18
2019-04-03T05:44:29.017Z,10.48
2019-04-03T05:46:59.485Z,10.32
2019-04-03T05:49:26.592Z,8.93
2019-04-03T05:51:54.646Z,11.68
2019-04-03T05:54:22.643Z,8.53
2019-04-03T05:56:51.793Z,9.03
2019-04-03T05:59:20.183Z,11.60
2019-04-03T06:01:48.170Z,11.88
2019-04-03T06:04:16.088Z,10.13
2019-04-03T06:06:45.913Z,11.25
2019-04-03T06:09:13.566Z,9.10
2019-04-03T06:11:41.756Z,14.13
2019-04-03T06:14:09.811Z,16.40
2019-04-03T06:16:37.720Z,11.68
2019-04-03T06:19:06.884Z,12.30
2019-04-03T06:21:35.250Z,10.78
2019-04-03T06:24:03.111Z,8.65
2019-04-03T06:26:30.977Z,9.50
2019-04-03T06:28:58.927Z,8.18
2019-04-03T06:31:27.251Z,7.28
2019-04-03T06:33:55.463Z,5.05
2019-04-03T06:36:23.412Z,4.87
2019-04-03T06:38:51.291Z,5.28
2019-04-03T06:41:19.333Z,4.28
2019-04-03T06:43:49.560Z,3.87
2019-04-03T06:46:17.009Z,2.72
2019-04-03T06:48:45.007Z,1.87
2019-04-03T06:51:15.790Z,1.50
2019-04-03T06:53:42.547Z,2.47
2019-04-03T06:56:10.453Z,1.77
2019-04-03T06:58:40.172Z,2.05
2019-04-03T07:01:08.440Z,1.52
2019-04-03T07:03:36.479Z,1.20
2019-04-03T07:06:04.463Z,1.20
2019-04-03T07:08:35.384Z,8.60
2019-04-03T07:11:02.466Z,4.78
2019-04-03T07:13:30.423Z,3.40
2019-04-03T07:15:58.397Z,4.17
2019-04-03T07:18:26.424Z,16.37
2019-04-03T07:20:54.323Z,2.77
2019-04-03T07:23:22.208Z,29.27
2019-04-03T07:25:50.092Z,88.90
2019-04-03T07:28:17.991Z,44.80
2019-04-03T07:30:46.040Z,17.20
2019-04-03T07:33:13.901Z,11.80
2019-04-03T07:35:41.800Z,21.60
2019-04-03T07:38:09.636Z,8.28
2019-04-03T07:40:37.835Z,6.00
2019-04-03T07:43:05.777Z,2.22
2019-04-03T07:45:33.715Z,1.22
2019-04-03T07:48:01.548Z,2.87
2019-04-03T07:50:29.527Z,8.38
2019-04-03T07:52:57.548Z,5.55
2019-04-03T07:55:28.007Z,4.17
2019-04-03T07:57:55.392Z,2.25
2019-04-03T08:00:23.544Z,0.93
2019-04-03T08:02:51.792Z,1.07
2019-04-03T08:05:19.688Z,0.85
2019-04-03T08:07:47.732Z,1.10
2019-04-03T08:10:15.625Z,1.72
2019-04-03T08:12:43.575Z,1.72
2019-04-03T08:15:13.510Z,1.35
2019-04-03T08:17:41.124Z,1.15
2019-04-03T08:20:09.294Z,1.27
2019-04-03T08:22:37.167Z,1.42
2019-04-03T08:25:05.049Z,1.30
2019-04-03T08:27:32.897Z,0.80
2019-04-03T08:30:00.783Z,1.35
2019-04-03T08:32:28.642Z,1.62
2019-04-03T08:34:56.676Z,1.20
2019-04-03T08:37:30.931Z,1.02
2019-04-03T08:39:57.172Z,1.17
2019-04-03T08:42:24.198Z,1.80
2019-04-03T08:44:52.305Z,1.20
2019-04-03T08:47:20.140Z,1.15
2019-04-03T08:49:47.974Z,1.02
2019-04-03T08:52:15.870Z,1.30
2019-04-03T08:54:43.952Z,0.90
2019-04-03T08:57:11.952Z,0.88
2019-04-03T08:59:40.133Z,0.85
2019-04-03T09:02:12.053Z,2.25
2019-04-03T09:04:37.765Z,1.65
2019-04-03T09:07:05.629Z,0.68
2019-04-03T09:09:35.171Z,1.12
2019-04-03T09:12:03.144Z,1.52
2019-04-03T09:14:31.000Z,1.35
2019-04-03T09:16:58.955Z,1.12
2019-04-03T09:19:27.102Z,1.45
2019-04-03T09:21:55.333Z,1.07
2019-04-03T09:24:23.350Z,2.75
2019-04-03T09:26:51.525Z,0.95
2019-04-03T09:29:19.396Z,1.20
2019-04-03T09:31:47.500Z,1.00
2019-04-03T09:34:15.483Z,1.55
2019-04-03T09:36:43.369Z,1.45
2019-04-03T09:39:13.899Z,3.30
2019-04-03T09:41:41.933Z,1.50
2019-04-03T09:44:10.010Z,1.52
2019-04-03T09:46:38.022Z,3.05
2019-04-03T09:49:07.617Z,2.95
2019-04-03T09:51:35.507Z,2.15
2019-04-03T09:54:03.788Z,1.90
2019-04-03T09:56:31.707Z,2.58
2019-04-03T09:58:59.554Z,2.35
2019-04-03T10:01:27.422Z,2.55
2019-04-03T10:03:55.942Z,3.20
2019-04-03T10:06:24.272Z,3.22
2019-04-03T10:08:52.457Z,2.30
2019-04-03T10:11:20.909Z,2.85
2019-04-03T10:13:49.271Z,3.05
2019-04-03T10:16:17.291Z,2.65
2019-04-03T10:18:45.284Z,2.92
2019-04-03T10:21:13.139Z,2.52
2019-04-03T10:23:41.085Z,2.98
2019-04-03T10:26:09.635Z,3.22
2019-04-03T10:28:37.751Z,3.15
2019-04-03T10:31:05.863Z,2.60
2019-04-03T10:33:33.781Z,3.33
2019-04-03T10:36:02.221Z,3.25
2019-04-03T10:38:30.519Z,4.33
2019-04-03T10:40:58.619Z,3.12
2019-04-03T10:43:26.699Z,3.62
2019-04-03T10:45:54.720Z,3.60
2019-04-03T10:48:22.601Z,2.37
2019-04-03T10:50:50.556Z,3.62
2019-04-03T10:53:20.000Z,2.50
2019-04-03T10:55:48.300Z,3.50
2019-04-03T10:58:16.257Z,3.12
2019-04-03T11:00:44.097Z,2.77
2019-04-03T11:03:11.982Z,3.50
2019-04-03T11:05:39.839Z,2.70
2019-04-03T11:08:07.796Z,2.83
2019-04-03T11:10:35.770Z,3.10
2019-04-03T11:13:03.840Z,2.95
2019-04-03T11:15:32.168Z,4.22
2019-04-03T11:18:00.013Z,2.67
2019-04-03T11:20:27.901Z,2.87
2019-04-03T11:23:05.331Z,2.75
2019-04-03T11:25:25.373Z,4.00
2019-04-03T11:27:53.330Z,2.83
2019-04-03T11:30:24.208Z,4.45
2019-04-03T11:32:50.845Z,3.55
2019-04-03T11:35:21.083Z,2.95
2019-04-03T11:37:48.512Z,3.02
2019-04-03T11:40:18.162Z,2.83
2019-04-03T11:42:46.682Z,3.72
2019-04-03T11:45:14.913Z,2.35
2019-04-03T11:47:44.865Z,3.70
2019-04-03T11:50:12.490Z,3.37
2019-04-03T11:52:40.338Z,5.12
2019-04-03T11:55:10.886Z,2.58
2019-04-03T11:57:37.824Z,2.65
2019-04-03T12:00:07.538Z,4.15
2019-04-03T12:02:38.287Z,3.00
2019-04-03T12:05:05.462Z,6.78
2019-04-03T12:07:33.705Z,3.37
2019-04-03T12:10:03.821Z,4.33
2019-04-03T12:12:31.619Z,4.17
2019-04-03T12:14:59.644Z,4.47
2019-04-03T12:17:29.370Z,4.00
2019-04-03T12:19:57.738Z,3.02
2019-04-03T12:22:25.679Z,4.50
2019-04-03T12:24:53.906Z,3.20
2019-04-03T12:27:23.103Z,4.47
2019-04-03T12:29:53.875Z,5.25
2019-04-03T12:32:20.863Z,2.95
2019-04-03T12:34:48.995Z,2.27
2019-04-03T12:37:18.707Z,2.65
2019-04-03T12:39:46.494Z,1.87
2019-04-03T12:42:16.632Z,1.70
2019-04-03T12:44:44.174Z,2.27
2019-04-03T12:47:13.729Z,3.00
2019-04-03T12:49:42.386Z,1.72
2019-04-03T12:52:10.352Z,1.60
2019-04-03T12:54:38.297Z,1.98
2019-04-03T12:57:06.775Z,2.42
2019-04-03T12:59:34.925Z,1.62
2019-04-03T13:02:02.946Z,1.92
2019-04-03T13:04:32.305Z,2.17
2019-04-03T13:07:01.066Z,1.32
2019-04-03T13:09:29.077Z,3.02
2019-04-03T13:11:57.283Z,1.60
2019-04-03T13:14:27.135Z,1.98
2019-04-03T13:16:55.036Z,2.30
2019-04-03T13:19:24.481Z,1.77
2019-04-03T13:21:52.711Z,3.70
2019-04-03T13:24:20.613Z,1.40
2019-04-03T13:26:48.569Z,2.60
2019-04-03T13:29:16.534Z,2.47
2019-04-03T13:31:46.741Z,2.25
2019-04-03T13:34:14.350Z,1.50
2019-04-03T13:36:42.357Z,1.55
2019-04-03T13:39:12.145Z,20.40
2019-04-03T13:41:42.376Z,3.65
2019-04-03T13:44:09.758Z,2.27
2019-04-03T13:46:38.082Z,1.52
2019-04-03T13:49:05.990Z,3.45
2019-04-03T13:51:34.086Z,3.25
2019-04-03T13:54:02.129Z,3.12
2019-04-03T13:56:30.503Z,2.10
2019-04-03T13:58:58.922Z,1.80
2019-04-03T14:01:27.903Z,1.90
2019-04-03T14:03:56.533Z,2.42
2019-04-03T14:06:24.644Z,1.60
2019-04-03T14:08:52.521Z,1.98
2019-04-03T14:11:20.914Z,1.92
2019-04-03T14:13:49.313Z,2.83
2019-04-03T14:16:21.657Z,4.53
2019-04-03T14:18:49.506Z,3.15
2019-04-03T14:21:16.516Z,1.32
2019-04-03T14:23:44.351Z,2.35
2019-04-03T14:26:14.281Z,1.87
2019-04-03T14:28:42.068Z,1.50
2019-04-03T14:31:10.510Z,2.20
2019-04-03T14:33:44.100Z,3.20
2019-04-03T14:36:08.263Z,2.83
2019-04-03T14:38:36.549Z,2.02
2019-04-03T14:41:05.243Z,2.15
2019-04-03T14:43:34.474Z,3.42
2019-04-03T14:46:02.804Z,1.27
2019-04-03T14:48:30.831Z,2.98
2019-04-03T14:50:58.756Z,2.33
2019-04-03T14:53:26.844Z,1.32
2019-04-03T14:55:55.188Z,1.70
2019-04-03T14:58:25.734Z,2.65
2019-04-03T15:00:53.133Z,2.83
2019-04-03T15:03:21.031Z,1.45
2019-04-03T15:05:49.139Z,1.50
2019-04-03T15:08:17.301Z,2.42
2019-04-03T15:10:45.270Z,2.87
2019-04-03T15:13:14.287Z,3.08
2019-04-03T15:15:42.716Z,2.90
2019-04-03T15:18:10.907Z,1.77
2019-04-03T15:20:39.216Z,1.50
2019-04-03T15:23:07.250Z,2.20
2019-04-03T15:25:35.241Z,3.47
2019-04-03T15:28:03.199Z,4.67
2019-04-03T15:30:31.398Z,3.83
2019-04-03T15:32:59.409Z,2.55
2019-04-03T15:35:27.765Z,1.70
2019-04-03T15:37:55.981Z,2.35
2019-04-03T15:40:25.906Z,2.52
2019-04-03T15:42:54.057Z,3.75
2019-04-03T15:45:25.304Z,1.77
2019-04-03T15:47:55.260Z,5.95
2019-04-03T15:50:22.053Z,4.50
2019-04-03T15:52:50.715Z,4.62
2019-04-03T15:55:18.800Z,3.42
2019-04-03T15:57:46.754Z,2.58
2019-04-03T16:00:14.818Z,3.80
2019-04-03T16:02:45.734Z,4.47
2019-04-03T16:05:12.299Z,4.05
2019-04-03T16:07:41.516Z,3.47
2019-04-03T16:10:09.911Z,9.13
2019-04-03T16:12:41.591Z,9.80
2019-04-03T16:15:09.567Z,9.50
2019-04-03T16:17:37.980Z,8.80
2019-04-03T16:20:06.320Z,3.92
2019-04-03T16:22:34.675Z,2.05
2019-04-03T16:25:02.638Z,1.70
2019-04-03T16:27:30.700Z,2.25
2019-04-03T16:29:58.578Z,1.52
2019-04-03T16:32:27.748Z,1.42
2019-04-03T16:34:56.608Z,3.67
2019-04-03T16:37:24.527Z,3.00
2019-04-03T16:39:52.591Z,4.58
2019-04-03T16:42:20.577Z,10.23
2019-04-03T16:44:48.416Z,9.28
2019-04-03T16:47:16.772Z,5.03
2019-04-03T16:49:44.724Z,4.65
2019-04-03T16:52:12.742Z,4.10
2019-04-03T16:54:43.429Z,3.20
2019-04-03T16:57:10.433Z,3.27
2019-04-03T16:59:38.404Z,4.10
2019-04-03T17:02:06.382Z,3.35
2019-04-03T17:04:35.597Z,3.25
2019-04-03T17:07:04.143Z,4.20
2019-04-03T17:09:34.831Z,4.12
2019-04-03T17:12:01.579Z,4.08
2019-04-03T17:14:29.554Z,4.50
2019-04-03T17:16:57.414Z,4.12
2019-04-03T17:19:25.390Z,4.17
2019-04-03T17:21:53.666Z,3.22
2019-04-03T17:24:21.590Z,3.40
2019-04-03T17:26:55.771Z,3.50
2019-04-03T17:29:19.582Z,3.58
2019-04-03T17:31:48.380Z,2.72
2019-04-03T17:34:16.369Z,2.35
2019-04-03T17:36:44.262Z,2.35
2019-04-03T17:39:12.463Z,2.90
2019-04-03T17:41:40.537Z,2.87
2019-04-03T17:44:08.469Z,1.75
2019-04-03T17:46:36.330Z,1.92
2019-04-03T17:49:04.195Z,2.80
2019-04-03T17:51:33.570Z,1.55
2019-04-03T17:54:01.646Z,2.85
2019-04-03T17:56:29.538Z,2.33
2019-04-03T17:58:57.408Z,2.62
2019-04-03T18:01:25.338Z,2.92
2019-04-03T18:03:53.254Z,2.58
2019-04-03T18:06:21.191Z,1.62
2019-04-03T18:08:49.101Z,2.25
2019-04-03T18:11:17.046Z,1.47
2019-04-03T18:13:44.911Z,1.70
2019-04-03T18:16:13.427Z,3.25
2019-04-03T18:18:41.532Z,2.35
2019-04-03T18:21:09.447Z,1.95
2019-04-03T18:23:37.438Z,2.10
2019-04-03T18:26:05.746Z,2.17
2019-04-03T18:28:33.919Z,3.77
2019-04-03T18:31:03.411Z,2.10
2019-04-03T18:33:31.276Z,2.83
2019-04-03T18:35:59.202Z,1.80
2019-04-03T18:38:27.111Z,2.12
2019-04-03T18:40:54.963Z,1.75
2019-04-03T18:43:22.843Z,2.55
2019-04-03T18:45:50.711Z,2.37
2019-04-03T18:48:18.601Z,3.27
2019-04-03T18:50:46.591Z,1.92
2019-04-03T18:53:14.486Z,2.90
2019-04-03T18:55:44.687Z,2.05
2019-04-03T18:58:11.983Z,2.62
2019-04-03T19:00:40.048Z,2.20
2019-04-03T19:03:08.036Z,2.98
2019-04-03T19:05:35.986Z,3.15
2019-04-03T19:08:12.929Z,3.45
2019-04-03T19:10:33.661Z,3.22
2019-04-03T19:13:01.576Z,4.28
2019-04-03T19:15:29.671Z,4.55
2019-04-03T19:18:00.419Z,3.52
2019-04-03T19:20:27.301Z,2.90
2019-04-03T19:23:02.562Z,3.02
2019-04-03T19:25:25.221Z,2.60
2019-04-03T19:27:53.161Z,2.17
2019-04-03T19:30:21.119Z,2.10
2019-04-03T19:32:49.071Z,2.95
2019-04-03T19:35:17.085Z,4.70
2019-04-03T19:37:45.495Z,2.52
2019-04-03T19:40:13.726Z,2.27
2019-04-03T19:42:41.914Z,3.98
2019-04-03T19:45:12.941Z,2.35
2019-04-03T19:47:40.911Z,3.47
2019-04-03T19:50:08.765Z,3.65
2019-04-03T19:52:37.302Z,3.12
2019-04-03T19:55:05.593Z,2.55
2019-04-03T19:57:33.597Z,4.37
2019-04-03T20:00:03.210Z,4.15
2019-04-03T20:02:31.169Z,2.83
2019-04-03T20:04:59.036Z,2.75
2019-04-03T20:07:27.325Z,3.15
2019-04-03T20:09:55.452Z,2.40
2019-04-03T20:12:23.304Z,2.65
2019-04-03T20:14:58.001Z,3.10
2019-04-03T20:17:20.864Z,2.62
2019-04-03T20:19:48.839Z,3.15
2019-04-03T20:22:16.838Z,2.52
2019-04-03T20:24:44.861Z,3.42
2019-04-03T20:27:12.763Z,2.20
2019-04-03T20:29:40.722Z,3.42
2019-04-03T20:32:08.617Z,3.15
2019-04-03T20:34:36.582Z,2.42
2019-04-03T20:37:04.500Z,4.75
2019-04-03T20:39:33.892Z,2.77
2019-04-03T20:42:03.436Z,5.47
2019-04-03T20:44:31.569Z,2.47
2019-04-03T20:46:59.443Z,5.25
2019-04-03T20:49:27.523Z,3.10
2019-04-03T20:51:57.637Z,2.60
2019-04-03T20:54:25.669Z,2.75
2019-04-03T20:56:58.099Z,2.87
2019-04-03T20:59:23.441Z,3.17
2019-04-03T21:01:51.414Z,3.30
2019-04-03T21:04:19.402Z,3.12
2019-04-03T21:06:47.338Z,4.30
2019-04-03T21:09:15.374Z,3.85
2019-04-03T21:11:43.328Z,3.10
2019-04-03T21:14:11.781Z,3.67
2019-04-03T21:16:39.835Z,3.72
2019-04-03T21:19:08.042Z,5.10
2019-04-03T21:21:36.004Z,3.15
2019-04-03T21:24:04.573Z,7.28
2019-04-03T21:26:32.671Z,4.30
2019-04-03T21:29:00.590Z,3.60
2019-04-03T21:31:28.682Z,4.35
2019-04-03T21:33:56.582Z,4.90
2019-04-03T21:36:24.530Z,4.67
2019-04-03T21:38:52.583Z,4.12
2019-04-03T21:41:21.262Z,4.45
2019-04-03T21:43:49.660Z,4.30
2019-04-03T21:46:17.556Z,4.10
2019-04-03T21:48:45.491Z,4.50
2019-04-03T21:51:13.409Z,4.35
2019-04-03T21:53:41.402Z,3.80
2019-04-03T21:56:09.282Z,4.28
2019-04-03T21:58:43.394Z,4.70
2019-04-03T22:01:14.359Z,5.80
2019-04-03T22:03:41.234Z,4.33
2019-04-03T22:06:09.186Z,3.62
2019-04-03T22:08:37.089Z,3.35
2019-04-03T22:11:05.159Z,4.85
2019-04-03T22:13:33.096Z,3.67
2019-04-03T22:16:00.985Z,4.20
2019-04-03T22:18:29.119Z,4.10
2019-04-03T22:20:57.016Z,4.47
2019-04-03T22:23:24.891Z,4.47
2019-04-03T22:25:52.870Z,4.22
2019-04-03T22:28:20.809Z,5.65
2019-04-03T22:30:48.800Z,4.10
2019-04-03T22:33:16.640Z,4.20
2019-04-03T22:35:44.538Z,4.50
2019-04-03T22:38:12.511Z,4.62
2019-04-03T22:40:40.798Z,4.30
2019-04-03T22:43:09.243Z,5.20
2019-04-03T22:45:37.156Z,4.62
2019-04-03T22:48:05.002Z,4.80
2019-04-03T22:50:33.488Z,6.40
2019-04-03T22:53:02.615Z,5.72
2019-04-03T22:55:30.607Z,7.62
2019-04-03T22:57:58.568Z,6.87
2019-04-03T23:00:26.562Z,7.22
2019-04-03T23:02:55.501Z,6.15
2019-04-03T23:05:24.679Z,4.90
2019-04-03T23:07:52.676Z,7.78
2019-04-03T23:10:20.703Z,5.53
2019-04-03T23:12:48.659Z,4.00
2019-04-03T23:15:16.660Z,5.62
2019-04-03T23:17:44.933Z,4.53
2019-04-03T23:20:13.351Z,5.05
2019-04-03T23:22:41.252Z,5.90
2019-04-03T23:25:09.222Z,10.28
2019-04-03T23:27:37.204Z,11.48
2019-04-03T23:30:05.172Z,12.73
2019-04-03T23:32:33.158Z,9.68
2019-04-03T23:35:01.142Z,8.25
2019-04-03T23:37:29.127Z,5.97
2019-04-03T23:39:56.994Z,6.22
2019-04-03T23:42:24.963Z,6.17
2019-04-03T23:44:52.811Z,8.63
2019-04-03T23:47:20.782Z,5.60
2019-04-03T23:49:50.776Z,6.65
2019-04-03T23:52:18.497Z,6.12
2019-04-03T23:54:46.427Z,6.95
2019-04-03T23:57:14.404Z,7.03
2019-04-03T23:59:44.112Z,9.03
